Time;durP1;ratioP1;P1;durP2;ratioP2;P2;SDS_P1;SDS_P2;PMS_P1;PMS_P2;Temp;Humidity;BMP_temperature;BMP_pressure;BME280_temperature;BME280_humidity;BME280_pressure;Samples;Min_cycle;Max_cycle;Signal;HPM_P1;HPM_P2
2021/11/20 00:00:39;;;;;;;50.40;19.93;;;1.50;99.90;;;;;;5039597;28;20432;-62
2021/11/20 00:03:05;;;;;;;67.07;17.40;;;1.50;99.90;;;;;;5038115;28;20459;-58
2021/11/20 00:05:37;;;;;;;42.07;16.40;;;1.60;99.90;;;;;;5026491;28;20448;-58
2021/11/20 00:08:05;;;;;;;61.23;17.43;;;1.50;99.90;;;;;;5021531;28;20214;-62
2021/11/20 00:10:34;;;;;;;58.30;17.73;;;1.50;99.90;;;;;;5020644;28;20441;-58
2021/11/20 00:13:00;;;;;;;45.00;17.23;;;1.50;99.90;;;;;;5019058;28;20788;-62
2021/11/20 00:15:30;;;;;;;57.60;16.30;;;1.50;99.90;;;;;;5025817;28;21025;-56
2021/11/20 00:17:57;;;;;;;47.03;16.90;;;1.50;99.90;;;;;;5025974;28;20517;-60
2021/11/20 00:20:25;;;;;;;38.47;16.20;;;1.50;99.90;;;;;;5023628;28;20506;-58
2021/11/20 00:22:52;;;;;;;46.67;15.93;;;1.60;99.90;;;;;;5022358;28;20456;-61
2021/11/20 00:25:40;;;;;;;57.53;16.70;;;1.60;99.90;;;;;;5019716;28;20436;-58
2021/11/20 00:28:06;;;;;;;77.93;17.77;;;1.60;99.90;;;;;;5023468;28;20429;-59
2021/11/20 00:30:53;;;;;;;42.87;17.40;;;1.60;99.90;;;;;;5023435;28;20461;-57
2021/11/20 00:33:21;;;;;;;68.53;19.50;;;1.60;99.90;;;;;;5026769;28;20438;-60
2021/11/20 00:35:46;;;;;;;67.10;20.67;;;1.60;99.90;;;;;;5026769;28;20802;-57
2021/11/20 00:38:14;;;;;;;60.20;18.20;;;1.60;99.90;;;;;;5033265;28;20443;-63
2021/11/20 00:40:52;;;;;;;87.37;18.40;;;1.60;99.90;;;;;;5036468;28;20182;-61
2021/11/20 00:43:20;;;;;;;118.80;19.80;;;1.60;99.90;;;;;;5038519;28;20451;-61
2021/11/20 00:45:46;;;;;;;61.53;20.30;;;1.60;99.90;;;;;;5033401;28;20869;-59
2021/11/20 00:48:13;;;;;;;67.33;17.30;;;1.60;99.90;;;;;;5023360;28;20433;-58
2021/11/20 00:50:42;;;;;;;96.17;20.80;;;1.60;99.90;;;;;;5025330;28;20511;-66
2021/11/20 00:53:08;;;;;;;49.50;16.13;;;1.60;99.90;;;;;;5026350;28;20437;-57
2021/11/20 00:55:34;;;;;;;87.20;17.73;;;1.60;99.90;;;;;;5026527;28;20457;-62
2021/11/20 00:58:00;;;;;;;89.50;18.10;;;1.60;99.90;;;;;;5020970;28;20460;-58
2021/11/20 01:00:30;;;;;;;74.90;17.83;;;1.60;99.90;;;;;;5017626;28;20527;-61
2021/11/20 01:02:57;;;;;;;85.63;16.90;;;1.60;99.90;;;;;;5023337;28;20460;-58
2021/11/20 01:05:23;;;;;;;70.07;17.53;;;1.60;99.90;;;;;;5029488;28;20704;-58
2021/11/20 01:07:49;;;;;;;79.00;17.53;;;1.60;99.90;;;;;;5017990;28;20460;-60
2021/11/20 01:10:19;;;;;;;81.57;17.90;;;1.60;99.90;;;;;;5022043;28;20193;-57
2021/11/20 01:12:44;;;;;;;136.13;20.40;;;1.60;99.90;;;;;;5017531;28;20229;-58
2021/11/20 01:15:15;;;;;;;167.03;21.20;;;1.60;99.90;;;;;;5025414;28;20423;-57
2021/11/20 01:17:41;;;;;;;103.33;18.53;;;1.60;99.90;;;;;;5030100;28;20284;-58
2021/11/20 01:20:09;;;;;;;98.77;20.00;;;1.60;99.90;;;;;;5017771;28;20494;-58
2021/11/20 01:22:35;;;;;;;89.43;18.30;;;1.60;99.90;;;;;;5028291;28;20185;-59
2021/11/20 01:25:01;;;;;;;109.90;17.23;;;1.60;99.90;;;;;;5029461;28;20422;-59
2021/11/20 01:27:27;;;;;;;104.80;18.60;;;1.50;99.90;;;;;;5027812;28;20461;-56
2021/11/20 01:29:53;;;;;;;73.63;16.87;;;1.60;99.90;;;;;;5026308;28;20182;-58
2021/11/20 01:32:19;;;;;;;107.73;17.77;;;1.50;99.90;;;;;;5015156;28;20195;-58
2021/11/20 01:34:46;;;;;;;93.93;18.27;;;1.50;99.90;;;;;;5030810;28;20956;-58
2021/11/20 01:37:15;;;;;;;96.23;15.60;;;1.50;99.90;;;;;;5028713;28;20443;-61
2021/11/20 01:39:42;;;;;;;71.53;18.10;;;1.50;99.90;;;;;;5026848;28;20454;-58
2021/11/20 01:42:14;;;;;;;86.53;16.73;;;1.50;99.90;;;;;;5025373;28;20421;-60
2021/11/20 01:44:45;;;;;;;107.17;17.10;;;1.50;99.90;;;;;;5031891;28;20457;-59
2021/11/20 01:47:29;;;;;;;102.93;15.70;;;1.50;99.90;;;;;;5029139;28;21002;-59
2021/11/20 01:50:01;;;;;;;104.53;17.23;;;1.50;99.90;;;;;;5026395;28;20441;-58
2021/11/20 01:52:53;;;;;;;140.47;16.63;;;1.50;99.90;;;;;;5030137;28;20473;-58
2021/11/20 01:55:32;;;;;;;152.63;17.63;;;1.50;99.90;;;;;;5027884;28;20534;-60
2021/11/20 01:58:22;;;;;;;184.07;19.83;;;1.50;99.90;;;;;;5031635;28;20464;-58
2021/11/20 02:00:54;;;;;;;102.93;16.40;;;1.60;99.90;;;;;;5025438;28;20488;-59
2021/11/20 02:03:32;;;;;;;44.90;15.03;;;1.60;99.90;;;;;;5027637;28;20464;-57
2021/11/20 02:06:22;;;;;;;97.57;16.67;;;1.50;99.90;;;;;;5026939;28;20463;-57
2021/11/20 02:09:09;;;;;;;68.27;16.60;;;1.60;99.90;;;;;;5022126;28;20918;-57
2021/11/20 02:11:43;;;;;;;100.93;15.57;;;1.50;99.90;;;;;;5024702;28;20425;-57
2021/11/20 02:14:12;;;;;;;82.00;14.90;;;1.50;99.90;;;;;;5025319;28;20427;-60
2021/11/20 02:16:44;;;;;;;47.60;15.30;;;1.50;99.90;;;;;;5024929;28;20489;-58
2021/11/20 02:19:14;;;;;;;64.50;15.13;;;1.50;99.90;;;;;;5024741;28;20452;-62
2021/11/20 02:21:49;;;;;;;55.10;15.23;;;1.40;99.90;;;;;;5027632;28;20417;-58
2021/11/20 02:24:15;;;;;;;96.00;15.63;;;1.40;99.90;;;;;;5022755;28;20910;-59
2021/11/20 02:26:41;;;;;;;69.17;15.43;;;1.40;99.90;;;;;;5027397;28;20528;-56
2021/11/20 02:29:10;;;;;;;53.60;14.93;;;1.40;99.90;;;;;;5028321;28;20612;-60
2021/11/20 02:31:45;;;;;;;59.10;13.73;;;1.40;99.90;;;;;;5028430;28;20280;-61
2021/11/20 02:34:11;;;;;;;85.27;16.60;;;1.40;99.90;;;;;;5025380;28;20457;-58
2021/11/20 02:36:37;;;;;;;112.67;18.83;;;1.40;99.90;;;;;;5031543;28;20462;-65
2021/11/20 02:39:17;;;;;;;103.10;16.00;;;1.40;99.90;;;;;;5049974;28;20444;-63
2021/11/20 02:41:47;;;;;;;71.57;15.10;;;1.40;99.90;;;;;;5036328;28;20617;-57
2021/11/20 02:44:14;;;;;;;79.77;15.50;;;1.40;99.90;;;;;;5026795;28;20466;-60
2021/11/20 02:46:44;;;;;;;48.33;13.10;;;1.40;99.90;;;;;;5025479;28;20480;-62
2021/11/20 02:49:11;;;;;;;91.23;16.07;;;1.40;99.90;;;;;;5026118;28;20502;-58
2021/11/20 02:51:45;;;;;;;65.60;14.77;;;1.40;99.90;;;;;;5022080;28;20489;-56
2021/11/20 02:54:14;;;;;;;60.73;14.60;;;1.40;99.90;;;;;;5021407;28;20797;-58
2021/11/20 02:56:48;;;;;;;54.13;13.83;;;1.40;99.90;;;;;;5025800;28;20473;-61
2021/11/20 02:59:14;;;;;;;47.30;12.27;;;1.40;99.90;;;;;;5027371;28;20451;-58
2021/11/20 03:01:41;;;;;;;31.73;11.87;;;1.40;99.90;;;;;;5026987;28;20490;-58
2021/11/20 03:04:10;;;;;;;56.33;14.00;;;1.40;99.90;;;;;;5021002;28;20472;-57
2021/11/20 03:06:37;;;;;;;74.27;14.17;;;1.40;99.90;;;;;;5024136;28;20444;-58
2021/11/20 03:09:06;;;;;;;42.30;11.77;;;1.40;99.90;;;;;;5024040;28;20424;-59
2021/11/20 03:11:32;;;;;;;57.83;12.33;;;1.40;99.90;;;;;;5021183;28;21127;-57
2021/11/20 03:14:04;;;;;;;38.03;11.40;;;1.40;99.90;;;;;;5023741;28;20449;-57
2021/11/20 03:16:40;;;;;;;42.80;11.13;;;1.40;99.90;;;;;;5023939;28;20496;-61
2021/11/20 03:19:06;;;;;;;30.77;11.20;;;1.40;99.90;;;;;;5022385;28;20744;-56
2021/11/20 03:21:33;;;;;;;75.83;12.40;;;1.40;99.90;;;;;;5021378;28;20917;-57
2021/11/20 03:24:02;;;;;;;52.10;12.50;;;1.30;99.90;;;;;;5020558;28;20461;-58
2021/11/20 03:26:28;;;;;;;35.33;10.80;;;1.30;99.90;;;;;;5017843;28;20453;-58
2021/11/20 03:28:53;;;;;;;35.10;11.00;;;1.30;99.90;;;;;;5019993;28;20433;-58
2021/11/20 03:31:20;;;;;;;20.33;10.00;;;1.30;99.90;;;;;;5018774;28;20433;-57
2021/11/20 03:33:46;;;;;;;49.10;13.07;;;1.30;99.90;;;;;;5019813;28;20702;-56
2021/11/20 03:36:13;;;;;;;18.67;9.43;;;1.30;99.90;;;;;;5023268;28;20457;-60
2021/11/20 03:38:40;;;;;;;16.40;10.40;;;1.40;99.90;;;;;;5022057;28;20520;-58
2021/11/20 03:41:06;;;;;;;21.33;9.37;;;1.40;99.90;;;;;;5022640;28;20458;-59
2021/11/20 03:43:32;;;;;;;21.97;9.50;;;1.40;99.90;;;;;;5021000;28;20466;-56
2021/11/20 03:45:58;;;;;;;25.87;10.00;;;1.40;99.90;;;;;;5023656;28;20426;-58
2021/11/20 03:48:23;;;;;;;18.20;8.90;;;1.40;99.90;;;;;;5022130;28;20270;-57
2021/11/20 03:50:49;;;;;;;34.77;9.07;;;1.40;99.90;;;;;;5019900;28;20209;-58
2021/11/20 03:53:15;;;;;;;26.47;8.53;;;1.40;99.90;;;;;;5022913;28;20262;-61
2021/11/20 03:55:44;;;;;;;46.90;9.97;;;1.40;99.90;;;;;;5022023;28;21230;-59
2021/11/20 03:58:11;;;;;;;56.33;10.63;;;1.40;99.90;;;;;;5035971;28;20431;-58
2021/11/20 04:00:42;;;;;;;45.57;9.20;;;1.40;99.90;;;;;;5023212;28;20444;-57
2021/11/20 04:03:09;;;;;;;64.30;11.10;;;1.40;99.90;;;;;;5018132;28;20627;-57
2021/11/20 04:05:34;;;;;;;64.27;10.10;;;1.40;99.90;;;;;;5024953;28;20729;-58
2021/11/20 04:08:00;;;;;;;35.43;9.37;;;1.40;99.90;;;;;;5018765;28;20472;-55
2021/11/20 04:10:27;;;;;;;40.97;10.30;;;1.40;99.90;;;;;;5020670;28;20278;-60
2021/11/20 04:12:53;;;;;;;86.43;11.10;;;1.40;99.90;;;;;;5021908;28;20211;-60
2021/11/20 04:15:22;;;;;;;54.43;9.73;;;1.40;99.90;;;;;;5024184;28;20959;-58
2021/11/20 04:17:49;;;;;;;72.83;7.83;;;1.40;99.90;;;;;;5034503;28;20460;-63
2021/11/20 04:20:19;;;;;;;48.00;8.50;;;1.50;99.90;;;;;;5040667;28;20443;-61
2021/11/20 04:22:45;;;;;;;43.27;7.80;;;1.40;99.90;;;;;;5033858;28;20463;-60
2021/11/20 04:25:14;;;;;;;36.10;8.37;;;1.40;99.90;;;;;;5029845;28;20846;-55
2021/11/20 04:27:40;;;;;;;73.50;8.50;;;1.50;99.90;;;;;;5025207;28;20458;-62
2021/11/20 04:30:08;;;;;;;39.50;7.50;;;1.50;99.90;;;;;;5041264;28;20457;-61
2021/11/20 04:32:34;;;;;;;85.00;8.00;;;1.50;99.90;;;;;;5043026;28;20449;-61
2021/11/20 04:35:00;;;;;;;66.30;7.93;;;1.50;99.90;;;;;;5024797;28;20464;-59
2021/11/20 04:37:26;;;;;;;70.90;8.27;;;1.60;99.90;;;;;;5024239;28;20203;-55
2021/11/20 04:39:51;;;;;;;33.03;6.10;;;1.60;99.90;;;;;;5023153;28;20180;-57
2021/11/20 04:42:17;;;;;;;39.47;7.20;;;1.60;99.90;;;;;;5019995;28;20441;-56
2021/11/20 04:44:43;;;;;;;40.03;6.70;;;1.60;99.90;;;;;;5020371;28;20454;-57
2021/11/20 04:47:09;;;;;;;28.37;6.97;;;1.60;99.90;;;;;;5039915;23;20870;-60
2021/11/20 04:49:35;;;;;;;38.13;7.43;;;1.60;99.90;;;;;;5026378;28;20510;-59
2021/11/20 04:52:01;;;;;;;62.10;8.60;;;1.60;99.90;;;;;;5027734;28;20789;-59
2021/11/20 04:54:27;;;;;;;18.43;6.87;;;1.60;99.90;;;;;;5027437;28;20262;-59
2021/11/20 04:56:53;;;;;;;36.63;6.73;;;1.60;99.90;;;;;;5020028;28;20461;-59
2021/11/20 04:59:18;;;;;;;32.33;7.60;;;1.70;99.90;;;;;;5007169;28;20433;-60
2021/11/20 05:01:44;;;;;;;29.10;7.03;;;1.70;99.90;;;;;;5007986;28;20226;-58
2021/11/20 05:04:10;;;;;;;28.87;6.83;;;1.70;99.90;;;;;;5007001;28;20738;-60
2021/11/20 05:06:35;;;;;;;24.30;6.47;;;1.70;99.90;;;;;;5008464;28;20225;-59
2021/11/20 05:09:01;;;;;;;18.10;6.60;;;1.70;99.90;;;;;;5006678;28;21064;-60
2021/11/20 05:11:30;;;;;;;43.00;7.60;;;1.70;99.90;;;;;;5007363;28;20510;-60
2021/11/20 05:13:57;;;;;;;33.57;7.57;;;1.80;99.90;;;;;;5009235;28;20182;-60
2021/11/20 05:16:23;;;;;;;29.83;7.60;;;1.80;99.90;;;;;;5006054;28;20433;-59
2021/11/20 05:18:49;;;;;;;26.37;8.10;;;1.70;99.90;;;;;;5008057;28;20415;-60
2021/11/20 05:21:16;;;;;;;27.90;7.73;;;1.80;99.90;;;;;;5004691;28;20820;-60
2021/11/20 05:23:42;;;;;;;34.90;7.23;;;1.80;99.90;;;;;;5007160;28;20212;-60
2021/11/20 05:26:11;;;;;;;22.77;6.57;;;1.80;99.90;;;;;;5006016;28;20467;-60
2021/11/20 05:28:37;;;;;;;23.23;7.07;;;1.80;99.90;;;;;;5007781;28;20502;-60
2021/11/20 05:31:03;;;;;;;24.20;7.87;;;1.80;99.90;;;;;;5008063;28;20527;-60
2021/11/20 05:33:42;;;;;;;15.10;7.13;;;1.80;99.90;;;;;;5006695;28;21991;-60
2021/11/20 05:36:09;;;;;;;15.57;7.13;;;1.80;99.90;;;;;;5006190;28;20434;-60
2021/11/20 05:38:34;;;;;;;14.10;7.70;;;1.80;99.90;;;;;;5003914;28;20443;-59
2021/11/20 05:41:00;;;;;;;25.13;8.03;;;1.70;99.90;;;;;;5006343;28;20442;-60
2021/11/20 05:43:26;;;;;;;26.57;8.20;;;1.70;99.90;;;;;;5007154;28;20249;-60
2021/11/20 05:46:11;;;;;;;24.00;7.70;;;1.70;99.90;;;;;;5007919;28;20513;-60
2021/11/20 05:48:37;;;;;;;18.07;7.40;;;1.70;99.90;;;;;;5006638;28;20582;-60
2021/11/20 05:51:03;;;;;;;19.57;8.20;;;1.70;99.90;;;;;;5006294;28;20411;-58
2021/11/20 05:53:28;;;;;;;18.00;8.73;;;1.70;99.90;;;;;;5006658;28;20436;-60
2021/11/20 05:55:57;;;;;;;23.70;8.73;;;1.70;99.90;;;;;;5007239;28;20659;-60
2021/11/20 05:58:24;;;;;;;19.93;8.47;;;1.70;99.90;;;;;;5005830;28;20241;-60
2021/11/20 06:00:54;;;;;;;22.33;8.23;;;1.70;99.90;;;;;;5003471;28;20517;-60
2021/11/20 06:03:21;;;;;;;13.80;7.23;;;1.70;99.90;;;;;;5002318;28;20536;-60
2021/11/20 06:05:48;;;;;;;27.97;8.00;;;1.70;99.90;;;;;;5019769;28;20435;-58
2021/11/20 06:08:14;;;;;;;19.83;8.50;;;1.70;99.90;;;;;;5003799;28;20439;-60
2021/11/20 06:10:42;;;;;;;17.87;9.07;;;1.70;99.90;;;;;;5004318;28;20429;-60
2021/11/20 06:13:09;;;;;;;11.87;7.13;;;1.80;99.90;;;;;;5006155;28;20430;-59
2021/11/20 06:15:35;;;;;;;26.47;6.23;;;1.80;99.90;;;;;;5005741;28;21020;-60
2021/11/20 06:18:01;;;;;;;24.40;7.13;;;1.80;99.90;;;;;;5006562;28;20453;-60
2021/11/20 06:20:27;;;;;;;10.90;6.10;;;1.80;99.90;;;;;;5005162;28;20423;-58
2021/11/20 06:22:53;;;;;;;25.30;6.10;;;1.80;99.90;;;;;;5007129;28;20796;-61
2021/11/20 06:25:18;;;;;;;14.83;6.53;;;1.90;99.90;;;;;;5003607;28;20275;-60
2021/11/20 06:27:44;;;;;;;18.70;6.47;;;1.90;99.90;;;;;;5020373;28;21056;-59
2021/11/20 06:30:14;;;;;;;12.40;6.00;;;1.90;99.90;;;;;;5004297;28;20273;-60
2021/11/20 06:32:40;;;;;;;15.23;6.10;;;1.90;99.90;;;;;;5003979;28;20175;-61
2021/11/20 06:35:11;;;;;;;11.27;6.40;;;1.90;99.90;;;;;;4999534;28;20863;-60
2021/11/20 06:37:39;;;;;;;14.60;6.43;;;2.00;99.90;;;;;;5005640;28;20461;-60
2021/11/20 06:40:09;;;;;;;9.30;5.80;;;2.00;99.90;;;;;;5006683;28;20936;-60
2021/11/20 06:42:36;;;;;;;10.50;6.33;;;2.00;99.90;;;;;;5005862;28;20435;-60
2021/11/20 06:45:05;;;;;;;22.70;7.97;;;2.00;99.90;;;;;;5004939;28;20481;-60
2021/11/20 06:47:31;;;;;;;17.33;6.60;;;2.00;99.90;;;;;;5004381;28;20528;-59
2021/11/20 06:49:57;;;;;;;18.10;7.17;;;2.10;99.90;;;;;;5005539;28;20434;-59
2021/11/20 06:52:23;;;;;;;18.47;7.30;;;2.10;99.90;;;;;;5006125;28;20597;-58
2021/11/20 06:54:49;;;;;;;16.33;7.43;;;2.10;99.90;;;;;;5002974;28;20446;-61
2021/11/20 06:57:26;;;;;;;15.20;7.13;;;2.10;99.90;;;;;;5021747;28;20198;-61
2021/11/20 07:02:37;;;;;;;12.97;7.43;;;2.10;99.90;;;;;;5004094;28;22747;-60
2021/11/20 07:05:06;;;;;;;14.30;8.23;;;2.10;99.90;;;;;;5004162;28;20465;-60
2021/11/20 07:07:34;;;;;;;16.13;7.43;;;2.10;99.90;;;;;;5006857;28;20459;-59
2021/11/20 07:10:01;;;;;;;16.03;7.63;;;2.10;99.90;;;;;;5004764;28;20431;-61
2021/11/20 07:12:27;;;;;;;16.53;7.30;;;2.10;99.90;;;;;;5002466;28;20520;-60
2021/11/20 07:14:52;;;;;;;14.37;5.73;;;2.10;99.90;;;;;;5003997;28;20511;-59
2021/11/20 07:17:19;;;;;;;14.87;7.03;;;2.20;99.90;;;;;;5003707;28;20991;-60
2021/11/20 07:19:45;;;;;;;21.37;8.87;;;2.20;99.90;;;;;;5005837;28;20233;-60
2021/11/20 07:22:10;;;;;;;15.47;6.80;;;2.20;99.90;;;;;;5003727;28;20439;-61
2021/11/20 07:24:36;;;;;;;18.57;6.73;;;2.20;99.90;;;;;;5005849;28;20582;-61
2021/11/20 07:27:02;;;;;;;23.87;8.30;;;2.30;99.90;;;;;;5002560;28;20231;-60
2021/11/20 07:29:27;;;;;;;41.20;10.27;;;2.30;99.90;;;;;;5006148;28;20169;-60
2021/11/20 07:31:53;;;;;;;23.90;7.43;;;2.30;99.90;;;;;;5004019;28;20177;-60
2021/11/20 07:34:19;;;;;;;41.63;8.00;;;2.30;99.90;;;;;;5005795;28;20180;-59
2021/11/20 07:36:44;;;;;;;27.33;8.30;;;2.40;99.90;;;;;;5004283;28;20199;-60
2021/11/20 07:39:14;;;;;;;15.53;7.37;;;2.40;99.90;;;;;;5003639;28;20427;-61
2021/11/20 07:41:39;;;;;;;15.17;5.63;;;2.40;99.90;;;;;;5004799;28;20667;-60
2021/11/20 07:44:05;;;;;;;18.23;6.40;;;2.50;99.90;;;;;;5004247;28;20555;-61
2021/11/20 07:46:32;;;;;;;15.63;5.53;;;2.50;99.90;;;;;;5006659;28;20534;-61
2021/11/20 07:48:59;;;;;;;12.20;5.60;;;2.50;99.90;;;;;;5004000;28;20426;-61
2021/11/20 07:51:25;;;;;;;8.03;4.37;;;2.60;99.90;;;;;;5005953;28;20410;-61
2021/11/20 07:53:51;;;;;;;4.30;3.27;;;2.60;99.90;;;;;;5004099;28;20497;-60
2021/11/20 07:56:19;;;;;;;9.10;4.13;;;2.70;99.90;;;;;;5005541;28;20446;-58
2021/11/20 07:58:46;;;;;;;10.10;4.87;;;2.70;99.90;;;;;;5006210;28;20465;-60
2021/11/20 08:01:12;;;;;;;10.83;4.97;;;2.70;99.90;;;;;;5002565;28;20419;-60
2021/11/20 08:03:37;;;;;;;5.93;3.10;;;2.80;99.90;;;;;;5003393;28;21037;-59
2021/11/20 08:06:04;;;;;;;7.40;4.00;;;2.80;99.90;;;;;;5002720;28;20435;-60
2021/11/20 08:08:31;;;;;;;7.30;3.23;;;2.80;99.90;;;;;;5004958;28;20208;-59
2021/11/20 08:10:57;;;;;;;5.53;4.10;;;2.80;99.90;;;;;;5004519;28;20847;-58
2021/11/20 08:13:23;;;;;;;8.27;4.00;;;2.90;99.90;;;;;;5004979;28;20450;-60
2021/11/20 08:15:49;;;;;;;8.23;3.30;;;2.90;99.90;;;;;;5015137;28;20435;-64
2021/11/20 08:18:15;;;;;;;7.53;4.10;;;2.90;99.90;;;;;;5016535;28;20454;-61
2021/11/20 08:20:44;;;;;;;8.20;3.33;;;2.90;99.90;;;;;;5011925;28;20434;-59
2021/11/20 08:23:13;;;;;;;9.13;4.30;;;3.00;99.90;;;;;;5007681;28;20256;-59
2021/11/20 08:25:40;;;;;;;7.77;4.43;;;3.00;99.90;;;;;;5008918;28;20921;-59
2021/11/20 08:28:08;;;;;;;10.10;5.13;;;3.00;99.90;;;;;;5007809;28;20538;-59
2021/11/20 08:30:35;;;;;;;6.73;4.10;;;3.00;99.90;;;;;;5006739;28;20427;-58
2021/11/20 08:33:01;;;;;;;8.80;5.20;;;3.10;99.90;;;;;;5006608;28;20438;-60
2021/11/20 08:35:28;;;;;;;8.33;4.10;;;3.10;99.90;;;;;;5007955;28;21429;-59
2021/11/20 08:37:55;;;;;;;6.53;3.63;;;3.10;99.90;;;;;;5008067;28;20538;-60
2021/11/20 08:40:26;;;;;;;5.27;3.93;;;3.10;99.90;;;;;;5009146;28;20429;-58
2021/11/20 08:42:52;;;;;;;6.17;3.87;;;3.20;99.90;;;;;;5007843;28;20443;-59
2021/11/20 08:45:24;;;;;;;4.57;3.63;;;3.20;99.90;;;;;;5007137;28;20794;-52
2021/11/20 08:47:53;;;;;;;5.70;3.50;;;3.20;99.90;;;;;;5008360;28;20265;-58
2021/11/20 08:50:23;;;;;;;9.57;4.30;;;3.30;99.90;;;;;;5008766;28;20430;-62
2021/11/20 08:52:48;;;;;;;6.70;3.80;;;3.30;99.90;;;;;;5003114;28;20530;-61
2021/11/20 08:55:15;;;;;;;6.90;3.70;;;3.40;99.90;;;;;;5018975;28;21049;-60
2021/11/20 08:57:42;;;;;;;4.07;3.03;;;3.40;99.90;;;;;;5006989;28;20206;-59
2021/11/20 09:00:14;;;;;;;5.40;3.00;;;3.40;99.90;;;;;;5003711;28;20434;-58
2021/11/20 09:02:46;;;;;;;5.60;3.50;;;3.50;99.90;;;;;;5005876;28;20443;-60
2021/11/20 09:05:35;;;;;;;6.00;3.40;;;3.50;99.90;;;;;;5005417;28;20552;-59
2021/11/20 09:08:06;;;;;;;6.70;3.43;;;3.50;99.90;;;;;;5008249;28;20515;-60
2021/11/20 09:10:52;;;;;;;7.70;4.17;;;3.50;99.90;;;;;;5008277;28;20432;-61
2021/11/20 09:13:23;;;;;;;6.70;3.50;;;3.60;99.90;;;;;;5005167;28;20967;-60
2021/11/20 09:16:00;;;;;;;6.37;4.00;;;3.60;99.90;;;;;;5004365;28;20493;-59
2021/11/20 09:18:28;;;;;;;6.60;3.80;;;3.60;99.90;;;;;;5004967;28;21016;-62
2021/11/20 09:20:55;;;;;;;7.10;4.13;;;3.70;99.90;;;;;;5001677;28;20445;-60
2021/11/20 09:23:22;;;;;;;5.07;3.40;;;3.70;99.90;;;;;;5003415;28;20467;-59
2021/11/20 09:25:48;;;;;;;8.77;4.70;;;3.70;99.90;;;;;;4999749;28;20435;-59
2021/11/20 09:28:16;;;;;;;6.37;4.20;;;3.70;99.90;;;;;;5005333;28;20447;-60
2021/11/20 09:30:46;;;;;;;6.37;3.50;;;3.70;99.90;;;;;;5005935;28;20432;-58
2021/11/20 09:33:12;;;;;;;6.73;4.27;;;3.70;99.90;;;;;;5004168;28;20812;-59
2021/11/20 09:35:39;;;;;;;6.67;3.80;;;3.80;99.90;;;;;;5008106;28;20428;-58
2021/11/20 09:38:05;;;;;;;5.53;3.80;;;3.80;99.90;;;;;;5005523;28;20211;-59
2021/11/20 09:40:33;;;;;;;10.87;4.30;;;3.80;99.90;;;;;;5003256;28;20443;-59
2021/11/20 09:43:04;;;;;;;7.67;3.60;;;3.80;99.90;;;;;;4997769;28;20195;-58
2021/11/20 09:45:36;;;;;;;4.20;3.40;;;3.80;99.90;;;;;;4999106;28;20557;-59
2021/11/20 09:48:11;;;;;;;6.20;4.20;;;3.90;99.90;;;;;;5000250;28;20498;-58
2021/11/20 09:51:04;;;;;;;7.37;4.73;;;3.90;99.90;;;;;;5001202;28;20493;-59
2021/11/20 09:53:30;;;;;;;9.17;4.27;;;3.90;99.90;;;;;;5001079;28;20519;-59
2021/11/20 09:56:03;;;;;;;8.17;4.40;;;3.90;99.90;;;;;;5006244;28;20527;-59
2021/11/20 09:58:35;;;;;;;8.23;4.10;;;4.00;99.90;;;;;;5006808;28;20208;-58
2021/11/20 10:01:03;;;;;;;5.40;3.80;;;4.00;99.90;;;;;;5000799;28;20447;-62
2021/11/20 10:03:38;;;;;;;5.53;3.93;;;4.00;99.90;;;;;;4986359;28;20456;-59
2021/11/20 10:06:11;;;;;;;8.30;3.73;;;4.10;99.90;;;;;;4995439;28;20438;-59
2021/11/20 10:08:43;;;;;;;6.13;4.13;;;4.10;99.90;;;;;;4999250;28;20459;-59
2021/11/20 10:11:19;;;;;;;4.90;3.80;;;4.10;99.90;;;;;;4995005;28;20457;-59
2021/11/20 10:13:59;;;;;;;5.53;4.00;;;4.10;99.90;;;;;;5002627;28;20521;-60
2021/11/20 10:17:06;;;;;;;6.93;4.07;;;4.10;99.90;;;;;;4998477;28;20431;-60
2021/11/20 10:19:39;;;;;;;8.17;3.93;;;4.10;99.90;;;;;;4971251;28;20460;-60
2021/11/20 10:22:30;;;;;;;5.43;3.80;;;4.20;99.90;;;;;;4975001;28;20876;-60
2021/11/20 10:25:14;;;;;;;5.23;4.20;;;4.20;99.90;;;;;;4990944;28;21182;-60
2021/11/20 10:27:59;;;;;;;7.80;4.37;;;4.20;99.90;;;;;;4997743;28;20491;-62
2021/11/20 10:30:34;;;;;;;5.60;4.03;;;4.20;99.90;;;;;;4995659;28;20457;-59
2021/11/20 10:33:05;;;;;;;4.87;3.63;;;4.20;99.90;;;;;;5003735;28;21010;-57
2021/11/20 10:35:55;;;;;;;7.63;4.90;;;4.20;99.90;;;;;;4997376;28;20516;-56
2021/11/20 10:38:25;;;;;;;5.60;3.90;;;4.30;99.90;;;;;;4994494;28;20568;-59
2021/11/20 10:41:08;;;;;;;9.17;5.10;;;4.30;99.90;;;;;;5003230;28;20928;-57
2021/11/20 10:43:56;;;;;;;6.60;4.87;;;4.30;99.90;;;;;;5007612;28;20480;-58
2021/11/20 10:46:32;;;;;;;7.07;4.73;;;4.40;99.90;;;;;;5002099;28;20439;-58
2021/11/20 10:49:19;;;;;;;5.00;3.70;;;4.40;99.90;;;;;;5009461;28;20431;-59
2021/11/20 10:51:47;;;;;;;6.67;4.60;;;4.50;99.90;;;;;;5001072;28;20428;-59
2021/11/20 10:54:34;;;;;;;8.20;4.73;;;4.50;99.90;;;;;;5001889;28;20432;-59
2021/11/20 10:57:38;;;;;;;7.80;4.83;;;4.50;99.90;;;;;;5008901;28;20471;-59
2021/11/20 11:00:32;;;;;;;6.50;4.60;;;4.60;99.90;;;;;;5006916;28;20427;-58
2021/11/20 11:03:28;;;;;;;6.20;4.50;;;4.60;99.90;;;;;;5000150;28;20436;-59
2021/11/20 11:06:24;;;;;;;7.23;5.00;;;4.60;99.90;;;;;;5009096;28;20416;-59
2021/11/20 11:09:07;;;;;;;9.07;6.13;;;4.70;99.90;;;;;;5010645;28;20461;-58
2021/11/20 11:11:59;;;;;;;7.83;4.90;;;4.70;99.90;;;;;;5003132;28;20523;-58
2021/11/20 11:14:43;;;;;;;8.53;4.97;;;4.70;99.90;;;;;;5004530;28;20973;-58
2021/11/20 11:17:39;;;;;;;8.43;5.20;;;4.70;99.90;;;;;;5010306;28;20543;-60
2021/11/20 11:20:28;;;;;;;8.53;4.70;;;4.70;99.90;;;;;;5006796;28;20975;-60
2021/11/20 11:23:17;;;;;;;6.20;4.77;;;4.70;99.90;;;;;;4999167;28;20489;-59
2021/11/20 11:26:00;;;;;;;6.60;4.90;;;4.80;99.90;;;;;;5006225;28;20441;-59
2021/11/20 11:28:51;;;;;;;8.63;5.87;;;4.70;99.90;;;;;;5007324;28;20451;-59
2021/11/20 11:31:32;;;;;;;7.30;5.20;;;4.70;99.90;;;;;;5008645;28;20406;-59
2021/11/20 11:34:22;;;;;;;5.80;4.50;;;4.70;99.90;;;;;;4994958;28;20466;-59
2021/11/20 11:37:11;;;;;;;7.30;5.30;;;4.80;99.90;;;;;;5016343;28;20456;-59
2021/11/20 11:39:49;;;;;;;7.03;4.80;;;4.80;99.90;;;;;;5001666;28;20474;-59
2021/11/20 11:42:54;;;;;;;7.63;4.87;;;4.90;99.90;;;;;;5007527;28;20869;-59
2021/11/20 11:45:38;;;;;;;10.60;5.30;;;4.90;99.90;;;;;;4999291;28;20549;-58
2021/11/20 11:48:19;;;;;;;8.43;5.20;;;4.90;99.90;;;;;;5007150;28;20911;-59
2021/11/20 11:50:47;;;;;;;6.57;4.90;;;5.00;99.90;;;;;;5005409;28;20451;-59
2021/11/20 11:53:47;;;;;;;6.90;4.77;;;5.00;99.90;;;;;;5005568;28;20436;-59
2021/11/20 11:56:27;;;;;;;7.00;5.37;;;5.00;99.90;;;;;;4994369;28;20562;-58
2021/11/20 11:59:34;;;;;;;7.13;5.30;;;5.00;99.90;;;;;;4999035;28;20443;-59
2021/11/20 12:02:13;;;;;;;7.23;5.13;;;5.00;99.90;;;;;;5010483;28;20438;-59
2021/11/20 12:04:48;;;;;;;7.30;5.10;;;5.00;99.90;;;;;;5022145;28;20562;-59
2021/11/20 12:07:30;;;;;;;6.83;5.00;;;5.10;99.90;;;;;;5022815;28;20431;-59
2021/11/20 12:10:17;;;;;;;7.70;5.20;;;5.10;99.90;;;;;;4996760;28;20446;-58
2021/11/20 12:13:25;;;;;;;7.67;5.90;;;5.20;99.90;;;;;;5012277;28;20412;-59
2021/11/20 12:16:05;;;;;;;7.17;4.73;;;5.20;99.90;;;;;;5000589;28;20429;-59
2021/11/20 12:18:55;;;;;;;8.30;5.47;;;5.20;99.90;;;;;;5011271;28;20443;-59
2021/11/20 12:21:43;;;;;;;8.00;5.87;;;5.20;99.90;;;;;;5006066;28;20474;-59
2021/11/20 12:24:18;;;;;;;9.13;6.00;;;5.30;99.90;;;;;;5011421;28;20446;-58
2021/11/20 12:26:47;;;;;;;12.70;6.30;;;5.20;99.90;;;;;;5010856;28;20442;-59
2021/11/20 12:29:28;;;;;;;11.50;5.90;;;5.20;99.90;;;;;;5016060;28;20502;-58
2021/11/20 12:32:06;;;;;;;8.20;6.07;;;5.20;99.90;;;;;;5006000;28;20396;-58
2021/11/20 12:34:53;;;;;;;8.43;6.07;;;5.20;99.90;;;;;;5012964;28;20399;-59
2021/11/20 12:37:33;;;;;;;9.97;6.70;;;5.30;99.90;;;;;;5004763;28;20974;-59
2021/11/20 12:40:22;;;;;;;8.63;5.80;;;5.30;99.90;;;;;;4993085;28;20404;-59
2021/11/20 12:43:00;;;;;;;9.53;6.03;;;5.30;99.90;;;;;;5002319;28;20422;-59
2021/11/20 12:45:40;;;;;;;8.50;5.20;;;5.30;99.90;;;;;;5004485;28;20445;-59
2021/11/20 12:48:11;;;;;;;10.40;6.53;;;5.30;99.90;;;;;;5007807;28;20470;-58
2021/11/20 12:51:09;;;;;;;9.40;5.77;;;5.30;99.90;;;;;;5007030;28;20805;-58
2021/11/20 12:53:53;;;;;;;11.07;7.10;;;5.30;99.90;;;;;;4989364;28;20992;-59
2021/11/20 12:56:28;;;;;;;7.77;5.97;;;5.30;99.90;;;;;;5008753;28;20791;-59
2021/11/20 12:59:21;;;;;;;8.60;6.13;;;5.40;99.90;;;;;;5011024;28;20955;-59
2021/11/20 13:02:08;;;;;;;8.80;6.50;;;5.40;99.90;;;;;;4992987;28;20475;-60
2021/11/20 13:04:50;;;;;;;6.90;5.47;;;5.40;99.90;;;;;;5004828;28;20454;-59
2021/11/20 13:07:21;;;;;;;8.17;5.53;;;5.40;99.90;;;;;;5010262;28;20440;-59
2021/11/20 13:09:52;;;;;;;9.03;6.60;;;5.40;99.90;;;;;;5011746;28;20522;-58
2021/11/20 13:12:21;;;;;;;8.50;6.33;;;5.40;99.90;;;;;;5009119;28;21164;-58
2021/11/20 13:15:11;;;;;;;11.87;6.67;;;5.40;99.90;;;;;;5020662;28;20803;-59